Indian Land, South Carolina
Current Conditions -  °F | °C
As of 10:04 PM on Monday 22 Dec 2014 (Local Time) from KUZA Reporting Station
Light Rain Light Rain  
Wind Chill: 38°   Ceiling: 600
Heat Index: 38°   Visibility: 6mi
Dew Point: 37°   Wind: 3mph
Humidity: 97%   Direction: 60°ENE
Pressure: 30.06"   Gusts: NA
Location:  34.9987°N, 80.9032°W
Report Text: KUZA 230304Z AUTO 06003KT 6SM -RA BR OVC006 03/03 A3006 RMK AO2 CIG 004V011 P0000 T00330028
Loading
Personal Weather Stations






























Interactive Weather Map New forecast layout! Learn more

10-Day Weather Forecast

Advertisements
Track Severe Weather on mobile